createdAt,value
2018-03-18T00:00:19.425Z,96.70
2018-03-18T00:02:46.370Z,96.70
2018-03-18T00:05:13.286Z,97.30
2018-03-18T00:07:40.203Z,97.30
2018-03-18T00:10:07.088Z,96.90
2018-03-18T00:12:34.717Z,98.00
2018-03-18T00:15:01.613Z,97.60
2018-03-18T00:17:28.490Z,97.50
2018-03-18T00:19:55.402Z,97.50
2018-03-18T00:22:22.997Z,97.30
2018-03-18T00:24:56.783Z,97.20
2018-03-18T00:27:23.621Z,98.30
2018-03-18T00:29:50.483Z,97.70
2018-03-18T00:32:17.513Z,97.60
2018-03-18T00:34:44.338Z,97.80
2018-03-18T00:37:11.205Z,97.70
2018-03-18T00:39:38.038Z,97.10
2018-03-18T00:42:04.954Z,97.50
2018-03-18T00:44:31.790Z,97.10
2018-03-18T00:46:59.366Z,97.50
2018-03-18T00:49:26.214Z,97.50
2018-03-18T00:51:59.863Z,97.30
2018-03-18T00:54:26.726Z,97.30
2018-03-18T00:56:53.563Z,97.10
2018-03-18T00:59:20.437Z,96.90
2018-03-18T01:01:47.358Z,96.90
2018-03-18T01:04:14.211Z,96.90
2018-03-18T01:06:41.779Z,96.90
2018-03-18T01:09:09.378Z,97.70
2018-03-18T01:11:36.319Z,97.30
2018-03-18T01:14:03.239Z,96.90
2018-03-18T01:16:30.106Z,97.00
2018-03-18T01:18:57.027Z,96.90
2018-03-18T01:21:23.939Z,96.80
2018-03-18T01:23:51.534Z,97.10
2018-03-18T01:26:18.451Z,97.10
2018-03-18T01:28:46.034Z,96.80
2018-03-18T01:31:12.991Z,96.70
2018-03-18T01:33:39.871Z,96.90
2018-03-18T01:36:06.698Z,96.60
2018-03-18T01:38:34.146Z,96.90
2018-03-18T01:41:01.068Z,96.80
2018-03-18T01:43:27.919Z,96.30
2018-03-18T01:45:54.765Z,96.80
2018-03-18T01:48:21.664Z,97.40
2018-03-18T01:50:49.318Z,97.10
2018-03-18T01:53:22.206Z,97.10
2018-03-18T01:55:49.046Z,97.30
2018-03-18T01:58:15.865Z,97.40
2018-03-18T02:00:42.783Z,97.30
2018-03-18T02:03:09.606Z,97.90
2018-03-18T02:05:37.194Z,97.70
2018-03-18T02:08:04.036Z,97.60
2018-03-18T02:10:31.649Z,97.30
2018-03-18T02:12:58.522Z,97.30
2018-03-18T02:15:26.114Z,97.10
2018-03-18T02:17:52.989Z,97.10
2018-03-18T02:20:19.842Z,97.40
2018-03-18T02:22:46.723Z,97.30
2018-03-18T02:25:14.315Z,97.40
2018-03-18T02:27:41.131Z,97.30
2018-03-18T02:30:08.004Z,97.10
2018-03-18T02:32:34.863Z,97.60
2018-03-18T02:35:01.690Z,97.80
2018-03-18T02:37:28.750Z,97.30
2018-03-18T02:39:55.560Z,98.30
2018-03-18T02:42:22.443Z,97.60
2018-03-18T02:44:49.299Z,98.00
2018-03-18T02:47:16.192Z,98.10
2018-03-18T02:49:50.678Z,98.00
2018-03-18T02:52:17.497Z,98.00
2018-03-18T02:54:44.365Z,97.00
2018-03-18T02:57:11.963Z,97.60
2018-03-18T02:59:38.793Z,97.60
2018-03-18T03:02:06.420Z,98.20
2018-03-18T03:04:33.271Z,98.20
2018-03-18T03:07:00.878Z,96.80
2018-03-18T03:09:27.692Z,96.80
2018-03-18T03:11:54.646Z,96.90
2018-03-18T03:14:21.468Z,97.70
2018-03-18T03:16:48.342Z,97.40
2018-03-18T03:19:15.190Z,97.00
2018-03-18T03:21:42.783Z,97.20
2018-03-18T03:24:09.680Z,97.20
2018-03-18T03:26:36.506Z,96.90
2018-03-18T03:29:04.141Z,97.10
2018-03-18T03:31:31.079Z,97.10
2018-03-18T03:33:57.867Z,97.30
2018-03-18T03:36:25.458Z,97.60
2018-03-18T03:38:52.281Z,97.60
2018-03-18T03:41:19.175Z,97.30
2018-03-18T03:43:46.092Z,97.40
2018-03-18T03:46:12.899Z,97.30
2018-03-18T03:48:39.718Z,97.10
2018-03-18T03:51:06.654Z,97.50
2018-03-18T03:53:33.450Z,98.10
2018-03-18T03:56:00.345Z,97.90
2018-03-18T03:58:27.172Z,97.60
2018-03-18T04:00:54.079Z,97.60
2018-03-18T04:03:20.901Z,97.70
2018-03-18T04:05:48.483Z,97.70
2018-03-18T04:08:15.290Z,97.70
2018-03-18T04:10:42.194Z,97.50
2018-03-18T04:13:09.035Z,98.00
2018-03-18T04:15:35.894Z,97.90
2018-03-18T04:18:02.791Z,97.30
2018-03-18T04:20:29.653Z,97.40
2018-03-18T04:22:56.530Z,97.10
2018-03-18T04:25:23.568Z,97.30
2018-03-18T04:27:50.396Z,97.20
2018-03-18T04:30:18.034Z,97.70
2018-03-18T04:32:44.939Z,97.70
2018-03-18T04:35:11.802Z,97.50
2018-03-18T04:37:39.338Z,97.50
2018-03-18T04:40:06.927Z,97.10
2018-03-18T04:42:33.832Z,97.10
2018-03-18T04:45:00.703Z,96.90
2018-03-18T04:47:28.263Z,97.40
2018-03-18T04:49:55.078Z,97.40
2018-03-18T04:52:21.995Z,97.80
2018-03-18T04:54:48.797Z,97.60
2018-03-18T04:57:16.383Z,97.00
2018-03-18T04:59:43.236Z,97.00
2018-03-18T05:02:10.168Z,96.60
2018-03-18T05:04:44.087Z,97.50
2018-03-18T05:07:10.929Z,97.60
2018-03-18T05:09:37.742Z,97.90
2018-03-18T05:12:04.636Z,97.30
2018-03-18T05:14:31.490Z,98.10
2018-03-18T05:16:58.314Z,98.40
2018-03-18T05:19:25.359Z,98.00
2018-03-18T05:21:52.201Z,98.70
2018-03-18T05:24:19.036Z,98.50
2018-03-18T05:26:45.907Z,98.40
2018-03-18T05:29:12.727Z,97.60
2018-03-18T05:31:39.602Z,97.60
2018-03-18T05:34:06.459Z,98.10
2018-03-18T05:36:34.029Z,97.80
2018-03-18T05:39:00.890Z,97.80
2018-03-18T05:41:27.774Z,98.40
2018-03-18T05:43:55.406Z,98.30
2018-03-18T05:46:22.247Z,98.70
2018-03-18T05:48:49.091Z,98.40
2018-03-18T05:51:15.941Z,98.00
2018-03-18T05:53:43.712Z,96.70
2018-03-18T05:56:10.531Z,96.70
2018-03-18T05:58:37.374Z,96.80
2018-03-18T06:01:04.266Z,95.60
2018-03-18T06:03:31.114Z,95.20
2018-03-18T06:05:58.673Z,95.20
2018-03-18T06:08:25.478Z,95.10
2018-03-18T06:10:52.358Z,95.60
2018-03-18T06:13:19.174Z,95.90
2018-03-18T06:15:46.022Z,95.40
2018-03-18T06:18:12.838Z,94.60
2018-03-18T06:20:39.704Z,95.10
2018-03-18T06:23:06.534Z,96.40
2018-03-18T06:25:33.352Z,95.50
2018-03-18T06:28:00.187Z,95.80
2018-03-18T06:30:27.043Z,95.80
2018-03-18T06:32:53.931Z,95.70
2018-03-18T06:35:20.759Z,96.40
2018-03-18T06:37:47.586Z,95.30
2018-03-18T06:40:14.414Z,94.60
2018-03-18T06:42:41.310Z,94.60
2018-03-18T06:45:08.889Z,95.10
2018-03-18T06:47:36.707Z,95.10
2018-03-18T06:50:04.280Z,94.80
2018-03-18T06:52:31.148Z,94.70
2018-03-18T06:54:58.747Z,95.50
2018-03-18T06:57:25.635Z,95.40
2018-03-18T06:59:52.459Z,94.60
2018-03-18T07:02:19.358Z,94.70
2018-03-18T07:04:46.276Z,93.50
2018-03-18T07:07:13.232Z,93.50
2018-03-18T07:09:40.215Z,93.80
2018-03-18T07:12:07.156Z,94.00
2018-03-18T07:14:34.113Z,94.10
2018-03-18T07:17:01.247Z,93.90
2018-03-18T07:19:28.098Z,93.80
2018-03-18T07:21:55.037Z,93.80
2018-03-18T07:24:21.939Z,93.20
2018-03-18T07:26:48.849Z,92.90
2018-03-18T07:29:15.805Z,92.70
2018-03-18T07:31:42.818Z,92.60
2018-03-18T07:34:09.818Z,92.80
2018-03-18T07:36:36.734Z,93.80
2018-03-18T07:39:03.737Z,94.40
2018-03-18T07:41:30.646Z,94.80
2018-03-18T07:43:57.535Z,94.30
2018-03-18T07:46:24.475Z,92.90
2018-03-18T07:48:51.383Z,92.80
2018-03-18T07:51:19.030Z,92.60
2018-03-18T07:53:46.700Z,92.00
2018-03-18T07:56:13.600Z,92.00
2018-03-18T07:58:40.523Z,92.00
2018-03-18T08:01:07.418Z,92.10
2018-03-18T08:03:34.348Z,90.80
2018-03-18T08:06:01.315Z,88.70
2018-03-18T08:08:28.974Z,90.40
2018-03-18T08:10:56.035Z,90.40
2018-03-18T08:13:22.959Z,91.00
2018-03-18T08:15:49.913Z,90.50
2018-03-18T08:18:17.519Z,91.10
2018-03-18T08:20:44.536Z,91.00
2018-03-18T08:23:11.519Z,91.10
2018-03-18T08:25:38.520Z,91.70
2018-03-18T08:28:05.472Z,91.60
2018-03-18T08:30:33.140Z,92.20
2018-03-18T08:33:00.885Z,91.60
2018-03-18T08:35:28.063Z,91.60
2018-03-18T08:37:55.021Z,91.10
2018-03-18T08:40:21.884Z,90.00
2018-03-18T08:42:48.929Z,91.00
2018-03-18T08:45:15.885Z,90.70
2018-03-18T08:47:42.798Z,90.90
2018-03-18T08:50:09.771Z,90.00
2018-03-18T08:52:36.782Z,89.50
2018-03-18T08:55:04.517Z,88.90
2018-03-18T08:57:32.143Z,89.80
2018-03-18T08:59:59.076Z,89.80
2018-03-18T09:02:26.033Z,89.50
2018-03-18T09:04:52.882Z,90.70
2018-03-18T09:07:19.808Z,90.80
2018-03-18T09:09:46.816Z,90.80
2018-03-18T09:12:14.592Z,90.50
2018-03-18T09:14:41.576Z,90.50
2018-03-18T09:17:08.578Z,90.90
2018-03-18T09:19:35.544Z,90.40
2018-03-18T09:22:02.748Z,91.10
2018-03-18T09:24:29.680Z,90.00
2018-03-18T09:26:57.326Z,91.60
2018-03-18T09:29:24.292Z,91.60
2018-03-18T09:31:51.980Z,90.80
2018-03-18T09:34:18.968Z,90.70
2018-03-18T09:36:45.915Z,90.40
2018-03-18T09:39:12.888Z,89.70
2018-03-18T09:41:40.001Z,88.70
2018-03-18T09:44:06.982Z,87.50
2018-03-18T09:46:34.075Z,88.60
2018-03-18T09:49:00.942Z,90.10
2018-03-18T09:51:27.944Z,89.40
2018-03-18T09:53:54.885Z,89.60
2018-03-18T09:56:21.814Z,89.80
2018-03-18T09:58:49.590Z,88.40
2018-03-18T10:01:16.755Z,88.30
2018-03-18T10:03:43.738Z,87.80
2018-03-18T10:06:10.830Z,88.20
2018-03-18T10:08:37.793Z,86.70
2018-03-18T10:11:04.803Z,87.50
2018-03-18T10:13:31.740Z,87.20
2018-03-18T10:15:59.487Z,86.40
2018-03-18T10:18:26.420Z,86.40
2018-03-18T10:20:53.732Z,88.50
2018-03-18T10:23:20.988Z,89.80
2018-03-18T10:25:47.935Z,89.50
2018-03-18T10:28:14.830Z,88.90
2018-03-18T10:30:41.786Z,88.80
2018-03-18T10:33:08.969Z,90.30
2018-03-18T10:35:35.835Z,91.00
2018-03-18T10:38:02.793Z,90.40
2018-03-18T10:40:29.684Z,90.10
2018-03-18T10:42:56.716Z,90.10
2018-03-18T10:45:24.339Z,90.90
2018-03-18T10:47:51.270Z,90.90
2018-03-18T10:50:18.225Z,90.50
2018-03-18T10:52:45.200Z,90.40
2018-03-18T10:55:12.189Z,90.60
2018-03-18T10:57:39.083Z,90.60
2018-03-18T11:00:06.064Z,90.20
2018-03-18T11:02:33.772Z,89.90
2018-03-18T11:05:00.686Z,89.90
2018-03-18T11:07:27.672Z,89.10
2018-03-18T11:09:54.598Z,89.90
2018-03-18T11:12:21.569Z,90.60
2018-03-18T11:14:48.647Z,90.20
2018-03-18T11:17:15.555Z,91.50
2018-03-18T11:19:43.204Z,91.10
2018-03-18T11:22:10.257Z,89.50
2018-03-18T11:24:37.176Z,90.10
2018-03-18T11:27:04.840Z,90.90
2018-03-18T11:29:31.829Z,90.90
2018-03-18T11:31:59.614Z,90.80
2018-03-18T11:34:27.348Z,90.50
2018-03-18T11:36:54.222Z,90.50
2018-03-18T11:39:21.170Z,91.00
2018-03-18T11:41:48.150Z,90.40
2018-03-18T11:44:15.845Z,90.50
2018-03-18T11:46:42.724Z,90.50
2018-03-18T11:49:09.644Z,91.60
2018-03-18T11:51:37.467Z,91.80
2018-03-18T11:54:05.432Z,91.40
2018-03-18T11:56:32.393Z,90.00
2018-03-18T11:58:59.344Z,88.70
2018-03-18T12:01:26.332Z,90.60
2018-03-18T12:03:54.043Z,90.40
2018-03-18T12:06:21.693Z,90.80
2018-03-18T12:08:57.313Z,90.40
2018-03-18T12:11:24.343Z,90.40
2018-03-18T12:13:51.974Z,90.20
2018-03-18T12:16:18.929Z,90.20
2018-03-18T12:18:45.803Z,89.50
2018-03-18T12:21:12.763Z,90.20
2018-03-18T12:23:40.390Z,90.50
2018-03-18T12:26:07.247Z,90.50
2018-03-18T12:28:34.936Z,92.00
2018-03-18T12:31:02.928Z,91.90
2018-03-18T12:33:29.877Z,92.20
2018-03-18T12:35:56.799Z,92.70
2018-03-18T12:38:23.714Z,91.80
2018-03-18T12:40:51.376Z,93.30
2018-03-18T12:43:29.131Z,93.20
2018-03-18T12:45:56.075Z,92.80
2018-03-18T12:48:23.713Z,92.00
2018-03-18T12:50:51.492Z,92.50
2018-03-18T12:53:18.416Z,92.50
2018-03-18T12:55:45.258Z,92.50
2018-03-18T12:58:12.135Z,92.60
2018-03-18T13:00:38.975Z,92.60
2018-03-18T13:03:05.821Z,92.50
2018-03-18T13:05:32.717Z,92.10
2018-03-18T13:07:59.570Z,92.80
2018-03-18T13:10:26.430Z,93.10
2018-03-18T13:12:53.275Z,91.80
2018-03-18T13:15:20.867Z,92.40
2018-03-18T13:17:47.685Z,92.40
2018-03-18T13:20:15.307Z,91.90
2018-03-18T13:22:42.170Z,91.90
2018-03-18T13:25:09.754Z,91.30
2018-03-18T13:27:36.631Z,91.20
2018-03-18T13:30:03.519Z,90.50
2018-03-18T13:32:30.450Z,90.40
2018-03-18T13:34:57.710Z,91.30
2018-03-18T13:37:24.660Z,91.80
2018-03-18T13:39:51.514Z,91.60
2018-03-18T13:42:18.486Z,91.80
2018-03-18T13:44:45.326Z,92.10
2018-03-18T13:47:12.141Z,91.20
2018-03-18T13:49:39.807Z,91.80
2018-03-18T13:52:06.974Z,92.20
2018-03-18T13:54:34.577Z,92.90
2018-03-18T13:57:01.455Z,92.80
2018-03-18T13:59:29.086Z,92.20
2018-03-18T14:01:56.053Z,92.10
2018-03-18T14:04:22.904Z,92.70
2018-03-18T14:06:50.531Z,92.40
2018-03-18T14:09:17.366Z,92.40
2018-03-18T14:11:44.346Z,92.90
2018-03-18T14:14:11.180Z,93.20
2018-03-18T14:16:38.806Z,92.80
2018-03-18T14:19:05.641Z,92.80
2018-03-18T14:21:32.543Z,92.60
2018-03-18T14:23:59.369Z,92.70
2018-03-18T14:26:26.243Z,92.80
2018-03-18T14:28:53.082Z,93.30
2018-03-18T14:31:19.995Z,93.10
2018-03-18T14:33:46.830Z,92.50
2018-03-18T14:36:13.688Z,91.30
2018-03-18T14:38:40.521Z,91.60
2018-03-18T14:41:07.409Z,92.10
2018-03-18T14:43:34.973Z,92.70
2018-03-18T14:46:02.566Z,93.10
2018-03-18T14:48:29.423Z,93.10
2018-03-18T14:50:56.262Z,93.00
2018-03-18T14:53:23.115Z,92.10
2018-03-18T14:55:49.978Z,91.90
2018-03-18T14:58:16.787Z,92.00
2018-03-18T15:00:43.636Z,91.40
2018-03-18T15:03:10.496Z,91.80
2018-03-18T15:05:37.362Z,92.10
2018-03-18T15:08:04.247Z,92.60
2018-03-18T15:10:31.086Z,91.70
2018-03-18T15:12:57.955Z,91.90
2018-03-18T15:15:24.815Z,92.10
2018-03-18T15:17:51.643Z,91.80
2018-03-18T15:20:19.225Z,91.50
2018-03-18T15:22:46.855Z,91.50
2018-03-18T15:25:13.669Z,91.50
2018-03-18T15:27:40.515Z,91.40
2018-03-18T15:30:07.338Z,91.90
2018-03-18T15:32:34.271Z,92.10
2018-03-18T15:35:01.878Z,92.00
2018-03-18T15:37:29.667Z,91.90
2018-03-18T15:39:56.534Z,91.30
2018-03-18T15:42:23.451Z,91.80
2018-03-18T15:44:50.280Z,91.20
2018-03-18T15:47:17.132Z,91.70
2018-03-18T15:49:43.990Z,91.20
2018-03-18T15:52:11.631Z,90.90
2018-03-18T15:54:38.435Z,90.90
2018-03-18T15:57:05.283Z,90.80
2018-03-18T15:59:32.119Z,90.80
2018-03-18T16:01:59.733Z,90.80
2018-03-18T16:04:26.578Z,90.80
2018-03-18T16:06:53.414Z,91.20
2018-03-18T16:09:21.220Z,90.50
2018-03-18T16:11:48.842Z,92.40
2018-03-18T16:14:15.695Z,92.30
2018-03-18T16:16:42.567Z,92.40
2018-03-18T16:19:10.131Z,92.00
2018-03-18T16:21:37.743Z,92.30
2018-03-18T16:24:04.606Z,92.30
2018-03-18T16:26:31.484Z,92.00
2018-03-18T16:29:11.378Z,92.60
2018-03-18T16:31:38.247Z,92.60
2018-03-18T16:34:05.884Z,92.90
2018-03-18T16:36:32.727Z,92.90
2018-03-18T16:38:59.590Z,92.60
2018-03-18T16:41:26.502Z,92.70
2018-03-18T16:43:53.410Z,92.20
2018-03-18T16:46:20.295Z,92.10
2018-03-18T16:48:47.162Z,92.70
2018-03-18T16:51:14.803Z,92.50
2018-03-18T16:53:41.696Z,92.50
2018-03-18T16:56:08.543Z,92.30
2018-03-18T16:58:35.395Z,92.40
2018-03-18T17:01:02.332Z,91.70
2018-03-18T17:03:29.219Z,91.70
2018-03-18T17:05:56.099Z,91.40
2018-03-18T17:08:23.699Z,91.50
2018-03-18T17:10:51.304Z,91.40
2018-03-18T17:13:18.942Z,91.70
2018-03-18T17:15:45.784Z,91.20
2018-03-18T17:18:12.636Z,91.70
2018-03-18T17:20:39.529Z,91.90
2018-03-18T17:23:06.455Z,91.50
2018-03-18T17:25:34.032Z,91.30
2018-03-18T17:28:00.907Z,91.30
2018-03-18T17:30:27.747Z,91.20
2018-03-18T17:32:54.660Z,91.30
2018-03-18T17:35:21.527Z,91.50
2018-03-18T17:37:48.406Z,91.50
2018-03-18T17:40:15.326Z,91.50
2018-03-18T17:42:43.084Z,91.70
2018-03-18T17:45:23.312Z,90.80
2018-03-18T17:48:03.224Z,91.80
2018-03-18T17:50:39.236Z,91.70
2018-03-18T17:53:18.430Z,92.20
2018-03-18T17:55:46.030Z,91.60
2018-03-18T17:58:12.884Z,91.60
2018-03-18T18:00:39.954Z,91.40
2018-03-18T18:03:06.959Z,91.40
2018-03-18T18:05:33.936Z,91.70
2018-03-18T18:08:01.669Z,91.70
2018-03-18T18:10:28.647Z,91.70
2018-03-18T18:12:56.290Z,92.50
2018-03-18T18:15:23.284Z,92.60
2018-03-18T18:17:51.191Z,92.10
2018-03-18T18:20:18.168Z,91.60
2018-03-18T18:22:45.192Z,91.20
2018-03-18T18:25:12.542Z,91.70
2018-03-18T18:27:41.347Z,91.30
2018-03-18T18:30:08.244Z,91.70
2018-03-18T18:32:35.888Z,92.30
2018-03-18T18:35:02.768Z,92.30
2018-03-18T18:37:29.645Z,91.40
2018-03-18T18:39:56.487Z,91.80
2018-03-18T18:42:23.392Z,91.70
2018-03-18T18:44:50.298Z,91.20
2018-03-18T18:47:17.127Z,91.80
2018-03-18T18:49:43.983Z,91.30
2018-03-18T18:52:10.867Z,91.70
2018-03-18T18:54:38.407Z,91.70
2018-03-18T18:57:05.283Z,91.70
2018-03-18T18:59:33.483Z,90.80
2018-03-18T19:02:01.917Z,90.40
2018-03-18T19:04:28.959Z,90.20
2018-03-18T19:06:55.882Z,90.00
2018-03-18T19:09:22.816Z,90.30
2018-03-18T19:11:51.198Z,90.60
2018-03-18T19:14:18.842Z,91.20
2018-03-18T19:16:45.755Z,91.20
2018-03-18T19:19:12.685Z,91.30
2018-03-18T19:21:40.660Z,92.00
2018-03-18T19:24:07.611Z,91.30
2018-03-18T19:26:34.654Z,91.50
2018-03-18T19:29:01.627Z,91.10
2018-03-18T19:31:32.849Z,90.80
2018-03-18T19:33:59.836Z,90.30
2018-03-18T19:36:26.735Z,90.40
2018-03-18T19:38:53.580Z,90.30
2018-03-18T19:41:20.767Z,90.50
2018-03-18T19:43:47.683Z,89.50
2018-03-18T19:46:14.585Z,90.00
2018-03-18T19:48:42.667Z,87.40
2018-03-18T19:51:11.275Z,89.50
2018-03-18T19:53:38.176Z,89.40
2018-03-18T19:56:05.103Z,89.20
2018-03-18T19:58:31.955Z,90.00
2018-03-18T20:00:58.983Z,89.50
2018-03-18T20:03:26.784Z,90.00
2018-03-18T20:05:54.591Z,89.90
2018-03-18T20:08:21.476Z,89.90
2018-03-18T20:10:48.358Z,89.10
2018-03-18T20:13:15.556Z,88.70
2018-03-18T20:15:43.282Z,90.00
2018-03-18T20:18:10.180Z,89.70
2018-03-18T20:20:37.026Z,90.00
2018-03-18T20:23:04.952Z,87.40
2018-03-18T20:25:31.979Z,88.10
2018-03-18T20:27:59.148Z,88.50
2018-03-18T20:30:26.880Z,89.10
2018-03-18T20:33:02.223Z,87.80
2018-03-18T20:35:30.055Z,88.60
2018-03-18T20:37:56.927Z,89.40
2018-03-18T20:40:24.811Z,89.10
2018-03-18T20:42:52.791Z,89.20
2018-03-18T20:45:19.675Z,88.30
2018-03-18T20:47:46.731Z,89.50
2018-03-18T20:50:14.571Z,89.40
2018-03-18T20:52:42.500Z,90.30
2018-03-18T20:55:12.227Z,90.50
2018-03-18T20:57:39.068Z,90.50
2018-03-18T21:00:05.987Z,90.00
2018-03-18T21:02:43.270Z,89.70
2018-03-18T21:05:10.207Z,90.60
2018-03-18T21:07:37.271Z,91.00
2018-03-18T21:10:04.590Z,90.60
2018-03-18T21:12:47.680Z,91.40
2018-03-18T21:15:14.760Z,90.70
2018-03-18T21:17:42.001Z,90.80
2018-03-18T21:20:08.857Z,90.90
2018-03-18T21:22:58.479Z,91.20
2018-03-18T21:25:26.187Z,91.30
2018-03-18T21:27:53.238Z,91.20
2018-03-18T21:30:20.219Z,91.20
2018-03-18T21:32:50.517Z,91.30
2018-03-18T21:35:17.535Z,91.20
2018-03-18T21:37:44.571Z,91.20
2018-03-18T21:40:12.708Z,91.40
2018-03-18T21:43:05.852Z,91.40
2018-03-18T21:45:32.752Z,90.80
2018-03-18T21:47:59.671Z,91.00
2018-03-18T21:50:26.574Z,90.40
2018-03-18T21:52:55.568Z,90.90
2018-03-18T21:55:23.699Z,91.40
2018-03-18T21:57:50.542Z,90.50
2018-03-18T22:00:17.605Z,90.60
2018-03-18T22:02:45.377Z,91.00
2018-03-18T22:05:12.271Z,90.40
2018-03-18T22:07:41.643Z,89.30
2018-03-18T22:10:09.333Z,87.70
2018-03-18T22:12:52.572Z,87.60
2018-03-18T22:15:19.718Z,88.70
2018-03-18T22:17:46.763Z,88.70
2018-03-18T22:20:13.615Z,89.30
2018-03-18T22:23:02.439Z,88.90
2018-03-18T22:25:29.410Z,88.90
2018-03-18T22:27:57.109Z,88.40
2018-03-18T22:30:24.072Z,88.30
2018-03-18T22:32:51.879Z,88.90
2018-03-18T22:35:19.082Z,87.80
2018-03-18T22:37:45.930Z,90.20
2018-03-18T22:40:13.085Z,90.30
2018-03-18T22:42:43.559Z,90.20
2018-03-18T22:45:15.025Z,89.80
2018-03-18T22:47:42.767Z,89.90
2018-03-18T22:50:09.703Z,89.40
2018-03-18T22:52:46.992Z,90.10
2018-03-18T22:55:13.843Z,90.30
2018-03-18T22:57:41.119Z,90.50
2018-03-18T23:00:08.016Z,89.60
2018-03-18T23:02:47.600Z,89.30
2018-03-18T23:05:14.596Z,88.70
2018-03-18T23:07:42.273Z,88.40
2018-03-18T23:10:10.092Z,87.60
2018-03-18T23:12:44.087Z,87.60
2018-03-18T23:15:11.004Z,88.60
2018-03-18T23:17:37.827Z,89.60
2018-03-18T23:20:04.700Z,89.30
2018-03-18T23:22:32.667Z,89.30
2018-03-18T23:24:59.627Z,89.50
2018-03-18T23:27:26.507Z,88.30
2018-03-18T23:29:53.399Z,89.20
2018-03-18T23:32:22.299Z,88.80
2018-03-18T23:34:49.144Z,88.30
2018-03-18T23:37:16.719Z,88.70
2018-03-18T23:39:43.559Z,88.50
2018-03-18T23:42:10.509Z,88.10
2018-03-18T23:44:37.438Z,89.30
2018-03-18T23:47:04.375Z,89.70
2018-03-18T23:49:31.307Z,89.70
2018-03-18T23:52:04.284Z,90.00
2018-03-18T23:54:31.882Z,90.90
2018-03-18T23:57:02.326Z,90.50
2018-03-18T23:59:29.287Z,90.20
